createdAt,value
2018-05-02T00:01:18.740Z,90.40
2018-05-02T00:03:46.414Z,93.70
2018-05-02T00:06:14.067Z,98.40
2018-05-02T00:08:41.738Z,96.30
2018-05-02T00:11:09.394Z,97.80
2018-05-02T00:13:37.687Z,98.00
2018-05-02T00:16:05.347Z,98.10
2018-05-02T00:18:33.412Z,94.20
2018-05-02T00:21:01.109Z,99.20
2018-05-02T00:23:28.827Z,96.10
2018-05-02T00:25:56.496Z,93.80
2018-05-02T00:28:24.153Z,93.00
2018-05-02T00:30:51.836Z,99.40
2018-05-02T00:33:19.501Z,94.30
2018-05-02T00:35:47.277Z,93.20
2018-05-02T00:38:15.011Z,92.70
2018-05-02T00:40:42.721Z,98.40
2018-05-02T00:43:10.554Z,99.90
2018-05-02T00:45:38.122Z,98.10
2018-05-02T00:48:05.788Z,99.90
2018-05-02T00:50:33.470Z,97.00
2018-05-02T00:53:01.123Z,99.90
2018-05-02T00:55:28.796Z,99.90
2018-05-02T00:57:56.438Z,99.90
2018-05-02T01:00:24.108Z,96.80
2018-05-02T01:02:51.753Z,96.10
2018-05-02T01:05:19.508Z,99.90
2018-05-02T01:07:47.159Z,95.30
2018-05-02T01:10:14.831Z,99.60
2018-05-02T01:12:42.508Z,99.90
2018-05-02T01:15:10.155Z,99.90
2018-05-02T01:17:37.811Z,97.50
2018-05-02T01:20:05.583Z,99.90
2018-05-02T01:22:33.239Z,99.90
2018-05-02T01:25:01.001Z,99.90
2018-05-02T01:27:28.661Z,99.90
2018-05-02T01:29:57.202Z,99.90
2018-05-02T01:32:24.930Z,99.90
2018-05-02T01:34:52.589Z,99.90
2018-05-02T01:37:20.244Z,99.90
2018-05-02T01:39:47.922Z,99.90
2018-05-02T01:42:15.580Z,99.90
2018-05-02T01:44:43.248Z,99.90
2018-05-02T01:47:10.904Z,99.90
2018-05-02T01:49:38.565Z,99.90
2018-05-02T01:52:06.230Z,99.90
2018-05-02T01:54:33.895Z,99.90
2018-05-02T01:57:01.535Z,99.90
2018-05-02T01:59:29.973Z,99.90
2018-05-02T02:01:57.635Z,99.90
2018-05-02T02:04:25.290Z,99.90
2018-05-02T02:06:53.028Z,99.90
2018-05-02T02:09:20.842Z,99.90
2018-05-02T02:11:48.470Z,99.90
2018-05-02T02:14:16.135Z,99.90
2018-05-02T02:16:43.821Z,99.90
2018-05-02T02:19:11.536Z,99.90
2018-05-02T02:21:39.301Z,99.90
2018-05-02T02:24:06.976Z,99.90
2018-05-02T02:26:34.637Z,99.90
2018-05-02T02:29:02.299Z,99.90
2018-05-02T02:31:29.961Z,99.90
2018-05-02T02:33:57.673Z,99.90
2018-05-02T02:36:25.271Z,99.90
2018-05-02T02:38:52.916Z,99.90
2018-05-02T02:41:21.533Z,99.90
2018-05-02T02:43:50.073Z,99.90
2018-05-02T02:46:17.772Z,99.90
2018-05-02T02:48:45.441Z,99.90
2018-05-02T02:51:13.104Z,99.90
2018-05-02T02:53:41.228Z,99.90
2018-05-02T02:56:08.895Z,99.90
2018-05-02T02:58:36.556Z,99.90
2018-05-02T03:01:04.226Z,99.90
2018-05-02T03:03:31.882Z,99.90
2018-05-02T03:05:59.590Z,99.90
2018-05-02T03:08:27.258Z,99.90
2018-05-02T03:10:55.062Z,99.90
2018-05-02T03:13:23.412Z,99.90
2018-05-02T03:15:51.209Z,99.90
2018-05-02T03:18:18.938Z,99.90
2018-05-02T03:20:46.597Z,99.90
2018-05-02T03:23:14.262Z,99.90
2018-05-02T03:25:41.927Z,99.90
2018-05-02T03:28:09.579Z,99.90
2018-05-02T03:30:37.233Z,99.90
2018-05-02T03:33:05.355Z,99.90
2018-05-02T03:35:32.966Z,99.90
2018-05-02T03:38:00.629Z,99.90
2018-05-02T03:40:28.292Z,99.90
2018-05-02T03:42:55.952Z,99.90
2018-05-02T03:45:23.600Z,99.90
2018-05-02T03:47:52.037Z,99.90
2018-05-02T03:50:19.683Z,99.90
2018-05-02T03:52:47.355Z,99.90
2018-05-02T03:55:15.007Z,99.90
2018-05-02T03:57:42.678Z,99.90
2018-05-02T04:00:16.304Z,99.90
2018-05-02T04:02:49.905Z,99.90
2018-05-02T04:05:23.352Z,99.90
2018-05-02T04:07:51.915Z,99.90
2018-05-02T04:10:20.333Z,99.90
2018-05-02T04:12:47.997Z,99.90
2018-05-02T04:15:15.638Z,99.90
2018-05-02T04:17:43.434Z,99.90
2018-05-02T04:20:11.088Z,99.90
2018-05-02T04:22:38.840Z,99.90
2018-05-02T04:25:06.489Z,99.90
2018-05-02T04:27:34.996Z,99.90
2018-05-02T04:30:02.644Z,99.90
2018-05-02T04:32:30.303Z,99.90
2018-05-02T04:34:58.026Z,99.90
2018-05-02T04:37:25.670Z,99.90
2018-05-02T04:39:53.404Z,99.90
2018-05-02T04:42:21.191Z,99.90
2018-05-02T04:44:48.932Z,99.90
2018-05-02T04:47:16.703Z,99.90
2018-05-02T04:49:44.352Z,99.90
2018-05-02T04:52:12.165Z,99.90
2018-05-02T04:54:39.892Z,99.90
2018-05-02T04:57:08.011Z,99.90
2018-05-02T04:59:35.829Z,99.90
2018-05-02T05:02:03.394Z,99.90
2018-05-02T05:04:31.053Z,99.90
2018-05-02T05:06:58.704Z,99.90
2018-05-02T05:09:27.132Z,99.90
2018-05-02T05:11:54.924Z,99.90
2018-05-02T05:14:22.582Z,99.90
2018-05-02T05:16:50.246Z,99.90
2018-05-02T05:19:17.927Z,99.90
2018-05-02T05:21:47.007Z,99.90
2018-05-02T05:24:14.690Z,99.90
2018-05-02T05:26:43.218Z,99.90
2018-05-02T05:29:10.955Z,99.90
2018-05-02T05:31:38.616Z,99.90
2018-05-02T05:34:06.308Z,99.90
2018-05-02T05:36:34.862Z,99.90
2018-05-02T05:39:02.533Z,99.90
2018-05-02T05:41:30.192Z,99.90
2018-05-02T05:43:57.874Z,99.90
2018-05-02T05:46:26.032Z,99.90
2018-05-02T05:48:53.690Z,99.90
2018-05-02T05:51:21.367Z,99.90
2018-05-02T05:53:49.128Z,99.90
2018-05-02T05:56:16.895Z,99.90
2018-05-02T05:58:44.864Z,99.90
2018-05-02T06:01:12.526Z,99.90
2018-05-02T06:03:40.186Z,99.90
2018-05-02T06:06:07.848Z,99.90
2018-05-02T06:08:35.519Z,99.90
2018-05-02T06:11:03.179Z,99.90
2018-05-02T06:13:30.939Z,99.90
2018-05-02T06:15:58.597Z,99.90
2018-05-02T06:18:26.270Z,99.90
2018-05-02T06:20:53.925Z,99.90
2018-05-02T06:23:21.730Z,99.90
2018-05-02T06:25:49.355Z,99.90
2018-05-02T06:28:17.023Z,99.90
2018-05-02T06:30:44.684Z,99.90
2018-05-02T06:33:12.435Z,99.90
2018-05-02T06:35:40.097Z,99.90
2018-05-02T06:38:07.773Z,99.90
2018-05-02T06:40:35.448Z,99.90
2018-05-02T06:43:03.157Z,99.90
2018-05-02T06:45:30.837Z,99.90
2018-05-02T06:47:59.264Z,99.90
2018-05-02T06:50:26.940Z,99.90
2018-05-02T06:52:54.604Z,99.90
2018-05-02T06:55:22.295Z,99.90
2018-05-02T06:57:50.813Z,99.90
2018-05-02T07:00:18.479Z,99.90
2018-05-02T07:02:46.252Z,99.90
2018-05-02T07:05:14.019Z,99.90
2018-05-02T07:07:41.676Z,99.90
2018-05-02T07:10:09.359Z,99.90
2018-05-02T07:12:37.020Z,99.90
2018-05-02T07:15:04.747Z,99.90
2018-05-02T07:17:32.399Z,99.90
2018-05-02T07:20:00.071Z,99.90
2018-05-02T07:22:27.749Z,99.90
2018-05-02T07:24:56.321Z,99.90
2018-05-02T07:27:23.991Z,99.90
2018-05-02T07:29:51.679Z,99.90
2018-05-02T07:32:19.336Z,99.90
2018-05-02T07:34:47.010Z,99.90
2018-05-02T07:37:14.660Z,99.90
2018-05-02T07:39:42.425Z,99.90
2018-05-02T07:42:10.088Z,99.90
2018-05-02T07:44:37.757Z,99.90
2018-05-02T07:47:05.412Z,99.90
2018-05-02T07:49:33.210Z,99.90
2018-05-02T07:52:00.909Z,99.90
2018-05-02T07:54:28.601Z,99.40
2018-05-02T07:56:56.251Z,98.40
2018-05-02T07:59:23.919Z,96.70
2018-05-02T08:01:51.591Z,98.60
2018-05-02T08:04:19.248Z,96.00
2018-05-02T08:06:46.919Z,95.20
2018-05-02T08:09:14.574Z,95.60
2018-05-02T08:11:42.241Z,94.50
2018-05-02T08:14:09.895Z,94.80
2018-05-02T08:16:38.647Z,93.30
2018-05-02T08:19:07.070Z,92.50
2018-05-02T08:21:34.727Z,92.50
2018-05-02T08:24:02.384Z,92.10
2018-05-02T08:26:30.170Z,91.80
2018-05-02T08:28:57.835Z,91.70
2018-05-02T08:31:25.539Z,93.40
2018-05-02T08:33:53.159Z,91.70
2018-05-02T08:36:20.857Z,90.20
2018-05-02T08:38:48.529Z,91.20
2018-05-02T08:41:16.222Z,91.00
2018-05-02T08:43:45.167Z,87.60
2018-05-02T08:46:12.926Z,87.20
2018-05-02T08:48:40.552Z,86.60
2018-05-02T08:51:08.256Z,86.90
2018-05-02T08:53:35.900Z,89.70
2018-05-02T08:56:03.586Z,88.50
2018-05-02T08:58:31.230Z,86.90
2018-05-02T09:00:58.904Z,85.20
2018-05-02T09:03:26.554Z,86.80
2018-05-02T09:05:54.289Z,88.10
2018-05-02T09:08:21.943Z,88.50
2018-05-02T09:10:49.760Z,89.40
2018-05-02T09:13:17.380Z,88.00
2018-05-02T09:15:45.139Z,87.70
2018-05-02T09:18:12.794Z,83.50
2018-05-02T09:20:41.024Z,85.50
2018-05-02T09:23:08.789Z,86.10
2018-05-02T09:25:36.434Z,86.80
2018-05-02T09:28:04.083Z,84.40
2018-05-02T09:30:31.758Z,83.90
2018-05-02T09:32:59.408Z,83.50
2018-05-02T09:35:27.082Z,84.80
2018-05-02T09:37:54.822Z,82.10
2018-05-02T09:40:22.485Z,79.20
2018-05-02T09:42:50.192Z,78.20
2018-05-02T09:45:17.820Z,79.90
2018-05-02T09:47:45.495Z,81.70
2018-05-02T09:50:13.252Z,79.60
2018-05-02T09:52:40.915Z,80.70
2018-05-02T09:55:08.668Z,81.80
2018-05-02T09:57:36.338Z,81.40
2018-05-02T10:00:04.008Z,83.90
2018-05-02T10:02:31.661Z,83.90
2018-05-02T10:04:59.317Z,84.70
2018-05-02T10:07:27.023Z,86.60
2018-05-02T10:09:54.676Z,82.30
2018-05-02T10:12:22.350Z,86.60
2018-05-02T10:14:50.002Z,84.00
2018-05-02T10:17:17.741Z,83.90
2018-05-02T10:19:45.399Z,86.10
2018-05-02T10:22:13.074Z,86.10
2018-05-02T10:24:40.823Z,85.30
2018-05-02T10:27:08.539Z,86.80
2018-05-02T10:29:36.200Z,85.00
2018-05-02T10:32:03.875Z,86.30
2018-05-02T10:34:31.577Z,89.00
2018-05-02T10:36:59.340Z,89.50
2018-05-02T10:39:26.912Z,88.20
2018-05-02T10:41:54.587Z,91.00
2018-05-02T10:44:22.235Z,90.40
2018-05-02T10:46:50.019Z,89.40
2018-05-02T10:49:17.655Z,86.30
2018-05-02T10:51:45.337Z,86.90
2018-05-02T10:54:12.987Z,88.20
2018-05-02T10:56:40.650Z,90.10
2018-05-02T10:59:08.452Z,90.90
2018-05-02T11:01:36.087Z,89.90
2018-05-02T11:04:03.777Z,88.90
2018-05-02T11:06:31.431Z,88.60
2018-05-02T11:08:59.169Z,90.10
2018-05-02T11:11:26.971Z,87.00
2018-05-02T11:13:54.623Z,89.00
2018-05-02T11:16:22.263Z,90.30
2018-05-02T11:18:49.958Z,88.50
2018-05-02T11:21:17.684Z,86.40
2018-05-02T11:23:45.366Z,90.10
2018-05-02T11:26:13.047Z,88.90
2018-05-02T11:28:40.778Z,89.50
2018-05-02T11:31:08.544Z,89.80
2018-05-02T11:33:36.232Z,89.80
2018-05-02T11:36:03.887Z,88.80
2018-05-02T11:38:31.575Z,89.40
2018-05-02T11:40:59.236Z,89.20
2018-05-02T11:43:26.980Z,87.40
2018-05-02T11:45:54.641Z,89.20
2018-05-02T11:48:22.313Z,89.90
2018-05-02T11:50:49.956Z,88.20
2018-05-02T11:53:17.707Z,90.10
2018-05-02T11:55:45.383Z,89.30
2018-05-02T11:58:13.151Z,90.00
2018-05-02T12:00:40.807Z,90.70
2018-05-02T12:03:08.503Z,91.00
2018-05-02T12:05:36.183Z,91.30
2018-05-02T12:08:03.930Z,90.60
2018-05-02T12:10:31.717Z,90.40
2018-05-02T12:12:59.307Z,91.40
2018-05-02T12:15:27.068Z,92.50
2018-05-02T12:17:54.752Z,93.70
2018-05-02T12:20:22.420Z,93.10
2018-05-02T12:22:50.075Z,92.40
2018-05-02T12:25:17.840Z,93.90
2018-05-02T12:27:45.513Z,93.80
2018-05-02T12:30:13.510Z,94.10
2018-05-02T12:32:41.233Z,95.00
2018-05-02T12:35:08.908Z,95.50
2018-05-02T12:37:36.566Z,96.10
2018-05-02T12:40:04.228Z,96.70
2018-05-02T12:42:31.882Z,95.90
2018-05-02T12:44:59.557Z,95.70
2018-05-02T12:47:27.212Z,95.80
2018-05-02T12:49:54.881Z,97.20
2018-05-02T12:52:22.635Z,97.30
2018-05-02T12:54:50.314Z,97.50
2018-05-02T12:57:17.963Z,96.90
2018-05-02T12:59:45.671Z,97.10
2018-05-02T13:02:13.297Z,97.80
2018-05-02T13:04:40.964Z,97.00
2018-05-02T13:07:08.628Z,97.10
2018-05-02T13:09:36.303Z,97.10
2018-05-02T13:12:04.067Z,97.20
2018-05-02T13:14:31.729Z,97.10
2018-05-02T13:16:59.381Z,97.30
2018-05-02T13:19:27.079Z,98.10
2018-05-02T13:21:54.786Z,97.30
2018-05-02T13:24:22.450Z,97.20
2018-05-02T13:26:50.114Z,96.90
2018-05-02T13:29:17.892Z,96.20
2018-05-02T13:31:45.548Z,94.50
2018-05-02T13:34:13.209Z,95.30
2018-05-02T13:36:40.892Z,94.70
2018-05-02T13:39:08.631Z,95.00
2018-05-02T13:41:36.307Z,95.40
2018-05-02T13:44:03.963Z,94.40
2018-05-02T13:46:31.637Z,94.20
2018-05-02T13:48:59.390Z,94.00
2018-05-02T13:51:27.070Z,91.90
2018-05-02T13:53:54.758Z,91.90
2018-05-02T13:56:22.406Z,92.70
2018-05-02T13:58:50.060Z,91.80
2018-05-02T14:01:18.188Z,91.20
2018-05-02T14:03:45.886Z,90.20
2018-05-02T14:06:13.556Z,89.20
2018-05-02T14:08:41.203Z,91.00
2018-05-02T14:11:08.873Z,90.80
2018-05-02T14:13:36.520Z,90.30
2018-05-02T14:16:04.236Z,90.10
2018-05-02T14:18:31.864Z,90.00
2018-05-02T14:20:59.637Z,87.80
2018-05-02T14:23:27.394Z,83.60
2018-05-02T14:25:55.168Z,85.10
2018-05-02T14:28:22.832Z,84.10
2018-05-02T14:30:50.589Z,85.60
2018-05-02T14:33:18.247Z,83.20
2018-05-02T14:35:46.004Z,83.80
2018-05-02T14:38:14.385Z,82.90
2018-05-02T14:40:42.576Z,79.90
2018-05-02T14:43:10.322Z,78.30
2018-05-02T14:45:37.991Z,76.50
2018-05-02T14:48:05.650Z,79.70
2018-05-02T14:50:33.297Z,77.70
2018-05-02T14:53:00.962Z,77.30
2018-05-02T14:55:28.651Z,77.10
2018-05-02T14:57:56.310Z,75.40
2018-05-02T15:00:24.493Z,74.80
2018-05-02T15:02:52.195Z,75.20
2018-05-02T15:05:19.824Z,78.50
2018-05-02T15:07:47.508Z,76.60
2018-05-02T15:10:15.171Z,80.00
2018-05-02T15:12:42.940Z,78.90
2018-05-02T15:15:10.589Z,77.10
2018-05-02T15:17:38.274Z,80.70
2018-05-02T15:20:05.944Z,79.20
2018-05-02T15:22:33.690Z,80.30
2018-05-02T15:25:01.332Z,79.00
2018-05-02T15:27:29.007Z,79.50
2018-05-02T15:29:56.659Z,80.80
2018-05-02T15:32:24.405Z,81.60
2018-05-02T15:34:52.090Z,84.10
2018-05-02T15:37:19.768Z,83.00
2018-05-02T15:39:47.435Z,81.80
2018-05-02T15:42:16.039Z,83.10
2018-05-02T15:44:43.764Z,85.00
2018-05-02T15:47:12.153Z,84.90
2018-05-02T15:49:39.815Z,84.90
2018-05-02T15:52:07.477Z,85.40
2018-05-02T15:54:35.129Z,84.90
2018-05-02T15:57:02.837Z,86.60
2018-05-02T15:59:31.361Z,87.90
2018-05-02T16:01:59.114Z,87.90
2018-05-02T16:04:26.773Z,86.10
2018-05-02T16:06:54.443Z,86.70
2018-05-02T16:09:22.097Z,86.10
2018-05-02T16:11:49.762Z,86.20
2018-05-02T16:14:17.439Z,85.10
2018-05-02T16:16:45.104Z,87.50
2018-05-02T16:19:12.781Z,87.10
2018-05-02T16:21:40.441Z,89.20
2018-05-02T16:24:08.183Z,88.40
2018-05-02T16:26:35.852Z,90.20
2018-05-02T16:29:03.549Z,88.60
2018-05-02T16:31:31.187Z,90.60
2018-05-02T16:33:58.848Z,89.90
2018-05-02T16:36:26.607Z,90.90
2018-05-02T16:38:54.282Z,90.20
2018-05-02T16:41:22.031Z,90.60
2018-05-02T16:43:49.711Z,90.50
2018-05-02T16:46:17.430Z,91.60
2018-05-02T16:48:45.116Z,90.70
2018-05-02T16:51:12.773Z,92.00
2018-05-02T16:53:40.467Z,91.60
2018-05-02T16:56:08.127Z,92.10
2018-05-02T16:58:35.800Z,92.60
2018-05-02T17:01:03.460Z,92.50
2018-05-02T17:03:31.136Z,93.50
2018-05-02T17:05:58.793Z,93.80
2018-05-02T17:08:26.737Z,93.90
2018-05-02T17:10:54.399Z,94.10
2018-05-02T17:13:22.156Z,94.30
2018-05-02T17:15:49.808Z,94.30
2018-05-02T17:18:17.491Z,94.00
2018-05-02T17:20:45.176Z,95.10
2018-05-02T17:23:12.834Z,95.40
2018-05-02T17:25:40.496Z,95.40
2018-05-02T17:28:08.172Z,95.80
2018-05-02T17:30:35.902Z,95.50
2018-05-02T17:33:03.667Z,96.10
2018-05-02T17:35:31.338Z,96.50
2018-05-02T17:37:59.002Z,96.80
2018-05-02T17:40:26.675Z,96.50
2018-05-02T17:42:54.428Z,96.50
2018-05-02T17:45:22.109Z,97.60
2018-05-02T17:47:49.763Z,97.70
2018-05-02T17:50:17.500Z,97.20
2018-05-02T17:52:45.298Z,97.00
2018-05-02T17:55:12.952Z,97.70
2018-05-02T17:57:40.647Z,96.80
2018-05-02T18:00:08.288Z,97.80
2018-05-02T18:02:35.948Z,97.10
2018-05-02T18:05:03.695Z,97.90
2018-05-02T18:07:31.348Z,98.00
2018-05-02T18:09:59.127Z,97.50
2018-05-02T18:12:26.800Z,98.10
2018-05-02T18:14:54.469Z,98.40
2018-05-02T18:17:22.137Z,97.60
2018-05-02T18:19:49.914Z,98.00
2018-05-02T18:22:17.558Z,99.30
2018-05-02T18:24:45.227Z,99.00
2018-05-02T18:27:12.894Z,99.00
2018-05-02T18:29:40.581Z,99.90
2018-05-02T18:32:08.529Z,99.50
2018-05-02T18:34:36.224Z,99.90
2018-05-02T18:37:03.875Z,99.80
2018-05-02T18:39:31.560Z,99.30
2018-05-02T18:41:59.998Z,99.90
2018-05-02T18:44:27.635Z,99.90
2018-05-02T18:46:55.393Z,99.90
2018-05-02T18:49:23.051Z,99.90
2018-05-02T18:51:50.764Z,99.90
2018-05-02T18:54:18.436Z,99.90
2018-05-02T18:56:46.112Z,99.90
2018-05-02T18:59:14.541Z,99.90
2018-05-02T19:01:42.222Z,99.90
2018-05-02T19:04:09.885Z,99.90
2018-05-02T19:06:37.640Z,99.90
2018-05-02T19:09:05.359Z,99.90
2018-05-02T19:11:33.027Z,99.90
2018-05-02T19:14:01.601Z,99.90
2018-05-02T19:16:30.041Z,99.90
2018-05-02T19:19:03.496Z,99.90
2018-05-02T19:21:31.268Z,99.90
2018-05-02T19:23:59.086Z,99.90
2018-05-02T19:26:32.340Z,99.90
2018-05-02T19:29:00.037Z,99.90
2018-05-02T19:31:47.579Z,99.90
2018-05-02T19:34:15.418Z,99.90
2018-05-02T19:36:43.190Z,99.90
2018-05-02T19:39:10.855Z,99.90
2018-05-02T19:41:44.260Z,99.90
2018-05-02T19:44:12.697Z,99.90
2018-05-02T19:46:40.511Z,99.90
2018-05-02T19:49:08.163Z,99.90
2018-05-02T19:51:41.551Z,99.90
2018-05-02T19:54:09.218Z,99.90
2018-05-02T19:56:36.948Z,99.90
2018-05-02T19:59:04.629Z,99.90
2018-05-02T20:01:38.275Z,99.90
2018-05-02T20:04:05.924Z,99.90
2018-05-02T20:06:33.835Z,99.90
2018-05-02T20:09:07.315Z,99.90
2018-05-02T20:11:40.984Z,99.90
2018-05-02T20:14:08.656Z,99.90
2018-05-02T20:16:36.322Z,99.90
2018-05-02T20:19:04.085Z,99.90
2018-05-02T20:21:31.698Z,99.90
2018-05-02T20:23:59.360Z,99.90
2018-05-02T20:26:27.128Z,99.90
2018-05-02T20:28:54.779Z,99.90
2018-05-02T20:31:22.467Z,99.90
2018-05-02T20:33:50.144Z,99.90
2018-05-02T20:36:17.816Z,99.90
2018-05-02T20:38:45.472Z,99.90
2018-05-02T20:41:13.158Z,99.90
2018-05-02T20:43:40.802Z,99.90
2018-05-02T20:46:08.466Z,99.90
2018-05-02T20:48:36.131Z,99.90
2018-05-02T20:51:03.778Z,99.90
2018-05-02T20:53:31.562Z,99.90
2018-05-02T20:55:59.190Z,99.90
2018-05-02T20:58:26.862Z,99.90
2018-05-02T21:00:54.599Z,99.90
2018-05-02T21:03:22.288Z,99.90
2018-05-02T21:05:49.936Z,99.90
2018-05-02T21:08:17.603Z,99.90
2018-05-02T21:10:45.264Z,99.90
2018-05-02T21:13:12.947Z,99.90
2018-05-02T21:15:40.599Z,99.90
2018-05-02T21:18:08.270Z,99.90
2018-05-02T21:20:35.944Z,99.90
2018-05-02T21:23:03.635Z,99.90
2018-05-02T21:25:31.354Z,99.90
2018-05-02T21:27:59.120Z,99.90
2018-05-02T21:30:26.790Z,99.90
2018-05-02T21:32:54.455Z,99.90
2018-05-02T21:35:22.111Z,99.90
2018-05-02T21:37:49.850Z,99.90
2018-05-02T21:40:17.512Z,99.90
2018-05-02T21:42:45.261Z,99.90
2018-05-02T21:45:13.776Z,99.90
2018-05-02T21:47:41.452Z,99.90
2018-05-02T21:50:09.093Z,99.90
2018-05-02T21:52:36.780Z,99.90
2018-05-02T21:55:04.440Z,99.90
2018-05-02T21:57:32.123Z,99.90
2018-05-02T21:59:59.771Z,99.90
2018-05-02T22:02:27.439Z,99.90
2018-05-02T22:04:55.176Z,99.90
2018-05-02T22:07:22.851Z,99.90
2018-05-02T22:09:50.609Z,99.90
2018-05-02T22:12:18.302Z,99.90
2018-05-02T22:14:45.970Z,99.90
2018-05-02T22:17:13.631Z,99.90
2018-05-02T22:19:41.302Z,99.90
2018-05-02T22:22:09.011Z,99.90
2018-05-02T22:24:36.780Z,99.90
2018-05-02T22:27:04.439Z,99.90
2018-05-02T22:29:32.199Z,99.90
2018-05-02T22:31:59.888Z,99.90
2018-05-02T22:34:27.546Z,99.90
2018-05-02T22:36:55.306Z,99.90
2018-05-02T22:39:22.967Z,99.90
2018-05-02T22:41:50.623Z,99.90
2018-05-02T22:44:18.308Z,99.90
2018-05-02T22:46:46.037Z,99.90
2018-05-02T22:49:13.706Z,99.90
2018-05-02T22:51:41.375Z,99.90
2018-05-02T22:54:09.036Z,99.90
2018-05-02T22:56:36.691Z,99.90
2018-05-02T22:59:04.391Z,99.90
2018-05-02T23:01:32.048Z,99.90
2018-05-02T23:03:59.738Z,99.90
2018-05-02T23:06:28.254Z,99.90
2018-05-02T23:08:55.966Z,99.90
2018-05-02T23:11:23.595Z,99.90
2018-05-02T23:13:51.331Z,99.90
2018-05-02T23:16:20.568Z,99.90
2018-05-02T23:18:48.248Z,99.90
2018-05-02T23:21:15.970Z,99.90
2018-05-02T23:23:43.692Z,99.90
2018-05-02T23:26:11.311Z,99.90
2018-05-02T23:28:38.982Z,99.90
2018-05-02T23:31:06.734Z,99.90
2018-05-02T23:33:34.403Z,99.90
2018-05-02T23:36:02.057Z,99.90
2018-05-02T23:38:29.730Z,99.90
2018-05-02T23:40:57.390Z,99.90
2018-05-02T23:43:25.043Z,99.90
2018-05-02T23:45:52.712Z,99.90
2018-05-02T23:48:20.363Z,99.90
2018-05-02T23:50:48.177Z,99.90
2018-05-02T23:53:15.837Z,99.90
2018-05-02T23:55:43.503Z,99.90
2018-05-02T23:58:11.239Z,99.90
